Time;durP1;ratioP1;P1;durP2;ratioP2;P2;SDS_P1;SDS_P2;PMS_P1;PMS_P2;Temp;Humidity;BMP_temperature;BMP_pressure;BME280_temperature;BME280_humidity;BME280_pressure;Samples;Min_cycle;Max_cycle;Signal;HPM_P1;HPM_P2
2022/06/13 00:01:01;;;;;;;9.18;3.05;;;;;;;11.93;80.69;101941.47;5054058;28;20021;-88
2022/06/13 00:03:26;;;;;;;10.20;2.93;;;;;;;11.86;80.52;101933.53;5054739;28;20035;-87
2022/06/13 00:05:51;;;;;;;9.57;2.87;;;;;;;11.86;81.08;101935.41;5054000;28;20044;-88
2022/06/13 00:08:17;;;;;;;6.43;2.93;;;;;;;11.79;81.31;101936.34;5054030;28;20043;-89
2022/06/13 00:10:42;;;;;;;10.43;2.77;;;;;;;11.75;81.82;101931.69;5053169;28;20048;-88
2022/06/13 00:13:08;;;;;;;11.48;2.97;;;;;;;11.68;81.77;101929.16;5054024;28;20029;-87
2022/06/13 00:15:33;;;;;;;8.23;3.03;;;;;;;11.61;82.13;101926.59;5053592;28;20033;-88
2022/06/13 00:17:58;;;;;;;10.07;3.20;;;;;;;11.60;82.40;101924.97;5054166;28;20021;-86
2022/06/13 00:20:24;;;;;;;10.50;2.97;;;;;;;11.57;82.12;101930.81;5053241;28;20279;-87
2022/06/13 00:22:49;;;;;;;6.87;3.00;;;;;;;11.51;82.38;101916.47;5053810;28;20112;-88
2022/06/13 00:25:16;;;;;;;7.83;2.77;;;;;;;11.53;82.57;101918.91;5035596;28;20025;-87
2022/06/13 00:27:42;;;;;;;7.82;3.00;;;;;;;11.51;82.62;101916.47;5053903;28;20025;-87
2022/06/13 00:30:09;;;;;;;12.20;3.30;;;;;;;11.53;82.63;101916.22;5053625;28;20036;-87
2022/06/13 00:32:34;;;;;;;10.27;3.10;;;;;;;11.46;83.18;101910.19;5036183;28;20025;-87
2022/06/13 00:35:00;;;;;;;8.83;3.40;;;;;;;11.46;83.53;101926.31;5054014;28;20044;-87
2022/06/13 00:37:25;;;;;;;11.95;3.70;;;;;;;11.47;83.47;101919.88;5053987;28;20036;-88
2022/06/13 00:39:50;;;;;;;10.77;3.80;;;;;;;11.51;83.87;101918.34;5053909;28;20045;-88
2022/06/13 00:42:20;;;;;;;6.47;3.30;;;;;;;11.62;83.77;101916.66;5053690;28;20530;-88
2022/06/13 00:45:10;;;;;;;8.27;3.60;;;;;;;11.75;82.32;101912.91;5053966;28;20037;-87
2022/06/13 00:47:38;;;;;;;8.43;3.40;;;;;;;11.89;82.32;101910.75;5053708;28;20037;-88
2022/06/13 00:50:07;;;;;;;9.55;3.33;;;;;;;12.00;81.45;101915.28;5053267;28;20052;-88
2022/06/13 00:52:48;;;;;;;6.28;3.30;;;;;;;11.95;81.20;101902.53;5054770;28;20021;-88
2022/06/13 00:55:20;;;;;;;7.63;3.33;;;;;;;12.02;81.85;101905.13;5053577;28;20047;-88
2022/06/13 00:57:46;;;;;;;9.77;3.58;;;;;;;12.09;82.50;101908.47;5053430;28;20024;-88
2022/06/13 01:00:13;;;;;;;12.67;3.83;;;;;;;12.15;82.48;101909.38;5052031;28;20530;-89
2022/06/13 01:02:43;;;;;;;7.55;3.38;;;;;;;12.21;82.81;101908.41;5052840;28;20025;-88
2022/06/13 01:05:09;;;;;;;14.07;3.85;;;;;;;12.30;82.76;101916.06;5052784;28;20021;-87
2022/06/13 01:07:37;;;;;;;9.80;3.93;;;;;;;12.35;82.37;101913.47;5053146;28;20477;-88
2022/06/13 01:12:48;;;;;;;9.70;3.05;;;;;;;12.52;81.03;101906.22;5053910;28;20044;-87
2022/06/13 01:15:31;;;;;;;10.90;3.53;;;;;;;12.59;80.88;101906.06;5054377;28;20392;-88
2022/06/13 01:18:23;;;;;;;8.83;3.00;;;;;;;12.68;80.19;101903.78;5052233;28;20029;-88
2022/06/13 01:20:58;;;;;;;9.60;3.40;;;;;;;12.72;80.30;101894.16;5052339;28;20263;-88
2022/06/13 01:24:12;;;;;;;9.23;4.07;;;;;;;12.78;80.57;101900.44;5052364;28;20029;-87
2022/06/13 01:26:49;;;;;;;7.60;3.35;;;;;;;12.82;81.49;101891.63;5034823;28;20036;-88
2022/06/13 01:29:42;;;;;;;14.55;3.65;;;;;;;12.77;81.87;101894.25;5052514;28;20029;-87
2022/06/13 01:32:37;;;;;;;10.00;3.90;;;;;;;12.74;81.62;101905.50;5051914;28;20055;-88
2022/06/13 01:35:20;;;;;;;11.35;4.13;;;;;;;12.70;82.91;101899.78;5052501;28;20037;-88
2022/06/13 01:37:56;;;;;;;12.00;4.20;;;;;;;12.75;83.90;101901.75;5052333;28;20067;-87
2022/06/13 01:40:38;;;;;;;12.93;3.97;;;;;;;12.79;82.85;101891.31;5051842;28;20180;-88
2022/06/13 01:43:11;;;;;;;13.15;4.85;;;;;;;12.78;84.91;101889.69;5052319;28;20040;-87
2022/06/13 01:45:47;;;;;;;14.03;4.40;;;;;;;12.76;85.03;101881.03;5052297;28;20083;-88
2022/06/13 01:48:32;;;;;;;13.00;4.03;;;;;;;12.78;83.56;101882.41;5052228;28;20278;-88
2022/06/13 01:51:16;;;;;;;11.85;4.32;;;;;;;12.81;84.49;101883.81;5052039;28;20029;-87
2022/06/13 01:53:53;;;;;;;10.48;4.43;;;;;;;12.86;84.66;101882.00;5052300;28;20044;-87
2022/06/13 01:56:26;;;;;;;9.15;4.45;;;;;;;12.89;84.18;101875.31;5051964;28;20534;-87
2022/06/13 01:59:12;;;;;;;8.13;4.13;;;;;;;12.91;83.27;101878.56;5052832;28;20029;-88
2022/06/13 02:01:49;;;;;;;14.55;4.10;;;;;;;12.94;84.83;101888.84;5036034;28;20192;-88
2022/06/13 02:04:14;;;;;;;13.32;4.63;;;;;;;12.95;84.87;101889.66;5052448;28;20056;-88
2022/06/13 02:06:44;;;;;;;11.30;4.27;;;;;;;12.93;85.48;101886.41;5051399;28;20098;-87
2022/06/13 02:09:19;;;;;;;13.85;4.30;;;;;;;13.03;83.71;101890.06;5051899;28;20017;-89
2022/06/13 02:11:48;;;;;;;13.40;4.53;;;;;;;13.06;84.02;101890.59;5051005;28;20033;-88
2022/06/13 02:14:22;;;;;;;9.93;4.40;;;;;;;13.11;83.69;101891.50;5052682;28;20108;-88
2022/06/13 02:16:57;;;;;;;14.97;4.60;;;;;;;13.14;84.15;101898.25;5053099;28;20033;-88
2022/06/13 02:19:52;;;;;;;12.27;4.50;;;;;;;13.21;83.83;101903.44;5052164;28;20785;-88
2022/06/13 02:22:30;;;;;;;14.05;4.28;;;;;;;13.26;83.12;101898.13;5051994;28;20048;-87
2022/06/13 02:25:19;;;;;;;16.27;4.65;;;;;;;13.26;83.57;101900.81;5052692;28;20119;-88
2022/06/13 02:27:51;;;;;;;17.52;4.60;;;;;;;13.29;83.39;101897.63;5051973;28;20029;-85
2022/06/13 02:30:19;;;;;;;10.75;4.32;;;;;;;13.36;83.51;101900.16;5051932;28;20435;-88
2022/06/13 02:32:50;;;;;;;14.45;5.18;;;;;;;13.38;83.80;101898.03;5052286;28;20130;-88
2022/06/13 02:35:21;;;;;;;10.82;4.72;;;;;;;13.36;83.32;101892.06;5052259;28;20021;-87
2022/06/13 02:38:00;;;;;;;16.45;4.75;;;;;;;13.40;83.11;101893.19;5052597;28;20028;-88
2022/06/13 02:40:34;;;;;;;16.77;4.55;;;;;;;13.37;82.28;101888.31;5051146;28;20037;-88
2022/06/13 02:43:18;;;;;;;12.20;4.43;;;;;;;13.40;82.91;101888.66;5051885;28;20435;-87
2022/06/13 02:45:54;;;;;;;14.23;4.50;;;;;;;13.36;82.89;101882.09;5051697;28;20283;-87
2022/06/13 02:48:19;;;;;;;16.30;5.15;;;;;;;13.37;83.16;101878.34;5051712;28;20044;-87
2022/06/13 02:50:58;;;;;;;12.40;4.67;;;;;;;13.32;83.06;101883.69;5052058;28;20029;-88
2022/06/13 02:53:35;;;;;;;23.40;5.20;;;;;;;13.31;82.92;101887.44;5052112;28;20436;-87
2022/06/13 02:56:09;;;;;;;15.27;5.60;;;;;;;13.28;84.29;101877.97;5052129;28;20120;-87
2022/06/13 02:58:39;;;;;;;16.92;5.32;;;;;;;13.28;82.69;101883.34;5052592;28;20460;-87
2022/06/13 03:01:12;;;;;;;14.85;5.05;;;;;;;13.24;82.28;101870.66;5051684;28;20606;-87
2022/06/13 03:03:46;;;;;;;15.38;5.50;;;;;;;13.17;82.80;101877.03;5051701;28;20025;-86
2022/06/13 03:06:23;;;;;;;12.80;5.13;;;;;;;13.08;82.48;101875.00;5034038;28;20021;-87
2022/06/13 03:09:15;;;;;;;12.70;5.35;;;;;;;12.99;83.53;101877.31;5051673;28;20167;-88
2022/06/13 03:11:55;;;;;;;19.75;6.05;;;;;;;12.96;84.30;101880.53;5051184;28;20047;-87
2022/06/13 03:14:20;;;;;;;16.10;5.40;;;;;;;12.91;84.27;101881.25;5052316;28;20029;-87
2022/06/13 03:17:03;;;;;;;20.90;5.70;;;;;;;12.88;84.23;101879.88;5051305;28;20282;-87
2022/06/13 03:19:40;;;;;;;16.90;5.97;;;;;;;12.88;84.36;101882.56;5051206;28;20025;-88
2022/06/13 03:22:15;;;;;;;16.13;5.93;;;;;;;12.92;84.36;101882.06;5050139;28;20280;-88
2022/06/13 03:24:53;;;;;;;16.92;6.53;;;;;;;12.88;84.79;101879.06;5050911;28;20021;-88
2022/06/13 03:27:34;;;;;;;16.35;6.45;;;;;;;12.83;84.06;101887.06;5050807;28;20056;-88
2022/06/13 03:30:12;;;;;;;17.40;6.63;;;;;;;12.79;84.72;101888.63;5050521;28;20021;-89
2022/06/13 03:33:39;;;;;;;18.80;5.57;;;;;;;12.79;84.63;101897.47;5050587;28;20031;-89
2022/06/13 03:35:30;;;;;;;16.27;6.18;;;;;;;12.75;86.00;101888.31;5050460;28;20040;-89
2022/06/13 03:37:56;;;;;;;16.67;5.73;;;;;;;12.67;85.75;101883.31;5050460;28;20353;-89
2022/06/13 03:40:26;;;;;;;14.27;6.23;;;;;;;12.64;86.23;101891.88;5050406;28;20033;-90
2022/06/13 03:42:51;;;;;;;20.05;6.32;;;;;;;12.50;85.94;101900.28;5050225;28;20558;-88
2022/06/13 03:45:23;;;;;;;16.30;5.87;;;;;;;12.37;86.61;101901.41;5050279;28;20029;-88
2022/06/13 03:48:03;;;;;;;20.67;5.90;;;;;;;12.29;86.83;101906.38;5050068;28;20033;-89
2022/06/13 03:50:34;;;;;;;15.93;5.95;;;;;;;12.22;87.63;101903.84;5049744;28;20036;-89
2022/06/13 03:53:17;;;;;;;16.23;6.47;;;;;;;12.15;87.56;101898.63;5050569;28;20033;-89
2022/06/13 03:56:20;;;;;;;19.15;6.47;;;;;;;12.10;87.98;101907.41;5050073;28;20060;-89
2022/06/13 03:59:00;;;;;;;13.25;6.05;;;;;;;12.11;87.92;101913.59;5011537;28;20041;-88
2022/06/13 04:01:33;;;;;;;16.88;6.40;;;;;;;12.09;88.89;101911.16;5050085;28;20043;-88
2022/06/13 04:04:01;;;;;;;22.77;6.75;;;;;;;12.09;89.14;101921.91;5050326;28;20052;-88
2022/06/13 04:06:32;;;;;;;20.77;6.82;;;;;;;12.13;89.45;101916.06;5053631;28;20020;-89
2022/06/13 04:09:00;;;;;;;19.17;6.20;;;;;;;12.20;89.16;101919.38;5053831;28;20051;-88
2022/06/13 04:11:56;;;;;;;20.17;7.10;;;;;;;12.20;88.44;101917.53;5052209;28;20303;-89
2022/06/13 04:14:43;;;;;;;17.35;6.35;;;;;;;12.14;88.62;101918.50;5040513;28;20041;-89
2022/06/13 04:17:20;;;;;;;23.17;6.78;;;;;;;12.06;90.33;101918.88;5050124;28;20384;-89
2022/06/13 04:19:58;;;;;;;20.25;6.90;;;;;;;12.04;90.23;101919.13;5050826;28;20033;-89
2022/06/13 04:23:05;;;;;;;19.05;6.78;;;;;;;12.03;89.92;101920.19;5049902;28;20108;-89
2022/06/13 04:25:46;;;;;;;18.27;6.30;;;;;;;12.00;90.29;101927.91;4994833;28;20532;-89
2022/06/13 04:28:33;;;;;;;19.80;7.47;;;;;;;11.90;90.78;101913.19;5050422;28;20025;-88
2022/06/13 04:31:00;;;;;;;17.90;5.88;;;;;;;11.93;90.67;101923.47;5049946;28;20021;-89
2022/06/13 04:33:55;;;;;;;18.40;6.65;;;;;;;11.93;90.55;101933.41;5049839;28;20021;-89
2022/06/13 04:36:23;;;;;;;17.10;6.33;;;;;;;11.95;91.64;101937.47;5040085;28;20044;-89
2022/06/13 04:38:54;;;;;;;24.57;7.03;;;;;;;11.97;90.86;101932.69;5053641;28;20338;-88
2022/06/13 04:41:23;;;;;;;18.58;7.13;;;;;;;12.08;91.65;101924.81;5053611;28;20060;-89
2022/06/13 04:43:52;;;;;;;17.08;7.35;;;;;;;12.29;91.40;101941.31;5053411;28;20029;-89
2022/06/13 04:46:21;;;;;;;15.48;7.15;;;;;;;12.45;90.84;101937.81;5053987;28;20025;-88
2022/06/13 04:48:48;;;;;;;17.90;7.22;;;;;;;12.70;89.64;101942.00;5054032;28;20384;-88
2022/06/13 04:51:18;;;;;;;25.50;7.80;;;;;;;12.83;89.39;101941.66;5053203;28;20079;-89
2022/06/13 04:54:00;;;;;;;17.20;6.80;;;;;;;12.99;88.51;101942.72;5053132;28;20571;-89
2022/06/13 04:56:27;;;;;;;20.48;7.38;;;;;;;13.16;88.09;101937.28;5053450;28;20084;-89
2022/06/13 04:58:54;;;;;;;18.80;7.43;;;;;;;13.30;88.26;101939.66;5053031;28;20021;-89
2022/06/13 05:01:33;;;;;;;20.23;7.30;;;;;;;13.47;86.90;101950.38;5052684;28;20066;-89
2022/06/13 05:04:09;;;;;;;18.03;7.27;;;;;;;13.60;86.92;101952.69;5053227;28;20278;-89
2022/06/13 05:06:37;;;;;;;22.73;8.00;;;;;;;13.72;86.86;101947.19;5052940;28;20036;-88
2022/06/13 05:09:08;;;;;;;18.30;7.75;;;;;;;13.83;86.88;101953.50;5052725;28;20480;-88
2022/06/13 05:11:57;;;;;;;16.48;8.18;;;;;;;14.04;85.73;101964.50;5052474;28;20091;-88
2022/06/13 05:14:34;;;;;;;17.20;7.07;;;;;;;14.25;85.44;101957.44;5053380;28;20033;-89
2022/06/13 05:17:20;;;;;;;21.13;7.80;;;;;;;14.48;84.21;101963.56;5052637;28;20067;-89
2022/06/13 05:20:21;;;;;;;18.75;8.38;;;;;;;14.66;83.74;101960.50;5059188;22;20041;-89
2022/06/13 05:23:14;;;;;;;18.45;7.47;;;;;;;14.95;83.05;101968.31;5034750;28;20046;-89
2022/06/13 05:25:55;;;;;;;20.55;7.93;;;;;;;15.05;82.47;101966.72;5052784;28;20053;-88
2022/06/13 05:28:23;;;;;;;20.77;7.53;;;;;;;15.16;81.65;101968.41;5052096;28;20025;-89
2022/06/13 05:30:54;;;;;;;22.77;7.87;;;;;;;15.17;80.81;101972.75;5052472;28;20279;-89
2022/06/13 05:33:22;;;;;;;21.77;7.80;;;;;;;15.12;81.44;101972.72;5052538;28;20029;-89
2022/06/13 05:35:52;;;;;;;21.83;7.80;;;;;;;15.11;82.36;101976.50;5052218;28;20033;-88
2022/06/13 05:38:20;;;;;;;16.23;7.32;;;;;;;15.23;81.23;101979.00;5052064;28;20396;-90
2022/06/13 05:40:46;;;;;;;18.77;8.10;;;;;;;15.39;81.51;101986.13;5052068;28;20078;-89
2022/06/13 05:43:13;;;;;;;17.17;7.43;;;;;;;15.60;79.81;101984.31;5052594;28;20025;-89
2022/06/13 05:45:40;;;;;;;21.53;7.53;;;;;;;15.88;79.30;101978.78;5052088;28;20278;-89
2022/06/13 05:48:11;;;;;;;18.33;7.63;;;;;;;16.12;77.66;101997.22;5051963;28;20025;-87
2022/06/13 05:50:37;;;;;;;23.23;8.25;;;;;;;16.28;77.27;101989.94;5051672;28;20100;-89
2022/06/13 05:53:02;;;;;;;20.17;7.40;;;;;;;16.42;76.93;101993.78;5052038;28;20103;-89
2022/06/13 05:55:28;;;;;;;22.70;7.45;;;;;;;16.70;75.98;102005.13;5051816;28;20416;-89
2022/06/13 05:57:53;;;;;;;22.20;7.37;;;;;;;16.93;75.25;102005.66;5051867;28;20064;-89
2022/06/13 06:00:28;;;;;;;20.83;7.90;;;;;;;16.93;74.98;102005.66;5051337;28;20048;-89
2022/06/13 06:02:54;;;;;;;20.50;7.40;;;;;;;16.90;74.65;102012.44;5051780;28;20028;-89
2022/06/13 06:05:19;;;;;;;19.80;6.53;;;;;;;16.80;73.91;102007.03;5051996;28;20280;-88
2022/06/13 06:07:44;;;;;;;21.83;7.63;;;;;;;16.80;73.66;102009.75;5051692;28;20029;-88
2022/06/13 06:10:18;;;;;;;20.07;6.90;;;;;;;16.84;73.76;102018.13;5051115;28;20036;-88
2022/06/13 06:12:43;;;;;;;22.98;6.45;;;;;;;17.01;72.54;102020.59;5051712;28;20377;-88
2022/06/13 06:15:27;;;;;;;19.73;6.30;;;;;;;17.14;72.59;102024.63;5051368;28;20048;-89
2022/06/13 06:17:52;;;;;;;19.23;6.43;;;;;;;17.38;71.79;102033.78;5051474;28;20057;-88
2022/06/13 06:20:21;;;;;;;17.57;6.37;;;;;;;17.61;70.36;102028.06;5050857;28;20053;-88
2022/06/13 06:22:46;;;;;;;17.42;6.15;;;;;;;17.71;70.01;102034.22;5050563;28;20036;-88
2022/06/13 06:25:14;;;;;;;16.00;6.10;;;;;;;17.67;69.41;102038.59;5051410;28;20033;-89
2022/06/13 06:27:40;;;;;;;19.17;6.37;;;;;;;17.65;69.31;102048.91;5050935;28;20770;-90
2022/06/13 06:30:07;;;;;;;17.23;6.03;;;;;;;17.98;69.15;102030.34;5032894;28;20061;-89
2022/06/13 06:32:32;;;;;;;16.90;5.72;;;;;;;18.61;66.34;102045.16;5050167;28;20031;-88
2022/06/13 06:34:57;;;;;;;14.30;4.23;;;;;;;18.96;62.80;102034.31;5033012;28;20036;-88
2022/06/13 06:37:23;;;;;;;18.37;4.37;;;;;;;19.11;61.75;102036.09;5050847;28;20060;-88
2022/06/13 06:39:48;;;;;;;14.07;4.37;;;;;;;18.88;61.31;102038.44;5051240;28;20025;-88
2022/06/13 06:42:13;;;;;;;21.20;3.93;;;;;;;18.56;61.09;102050.63;5050773;28;20287;-89
2022/06/13 06:44:39;;;;;;;12.40;3.37;;;;;;;18.22;62.63;102048.69;5050883;28;20033;-89
2022/06/13 06:47:06;;;;;;;13.37;3.07;;;;;;;17.89;62.34;102056.41;5050514;28;20483;-89
2022/06/13 06:49:37;;;;;;;12.60;3.38;;;;;;;17.44;63.88;102063.59;5050751;28;20033;-89
2022/06/13 06:52:03;;;;;;;13.45;2.85;;;;;;;17.14;61.71;102059.84;5050749;28;20028;-88
2022/06/13 06:59:57;;;;;;;11.57;2.00;;;;;;;17.44;61.51;102077.94;5051066;28;20322;-89
2022/06/13 07:02:26;;;;;;;6.05;2.10;;;;;;;17.83;60.04;102065.63;5050294;28;20029;-87
2022/06/13 07:04:56;;;;;;;11.48;2.10;;;;;;;18.05;55.93;102073.44;5050387;28;20071;-88
2022/06/13 07:07:21;;;;;;;5.32;1.70;;;;;;;18.10;56.44;102062.56;5050370;28;20489;-89
2022/06/13 07:09:47;;;;;;;10.30;2.20;;;;;;;18.11;55.83;102074.22;5050360;28;20100;-89
2022/06/13 07:12:13;;;;;;;8.47;1.97;;;;;;;17.94;55.89;102071.84;5050270;28;20016;-89
2022/06/13 07:14:38;;;;;;;6.72;1.90;;;;;;;17.74;57.45;102081.66;5050564;28;20052;-89
2022/06/13 07:17:06;;;;;;;9.60;2.40;;;;;;;17.36;58.66;102070.38;5050751;28;20096;-89
2022/06/13 07:19:32;;;;;;;6.10;1.90;;;;;;;17.27;58.83;102075.53;5051034;28;20469;-89
2022/06/13 07:21:58;;;;;;;7.47;2.10;;;;;;;17.37;59.41;102072.78;5050527;28;20020;-89
2022/06/13 07:24:24;;;;;;;8.73;1.60;;;;;;;17.50;58.21;102070.63;5051204;28;20504;-89
2022/06/13 07:26:50;;;;;;;7.78;2.05;;;;;;;17.56;56.39;102081.16;5050492;28;20033;-89
2022/06/13 07:29:16;;;;;;;10.73;2.30;;;;;;;17.50;56.44;102081.47;5050929;28;20028;-89
2022/06/13 07:32:05;;;;;;;12.15;2.25;;;;;;;17.45;57.42;102084.97;5052387;28;20515;-89
2022/06/13 07:34:34;;;;;;;5.45;1.52;;;;;;;17.69;56.82;102082.50;5052682;28;20040;-89
2022/06/13 07:37:02;;;;;;;15.27;1.95;;;;;;;18.32;56.40;102074.94;5050795;28;20035;-89
2022/06/13 07:39:28;;;;;;;9.60;2.08;;;;;;;19.20;56.07;102082.47;5050414;28;20040;-89
2022/06/13 07:41:54;;;;;;;8.40;2.07;;;;;;;19.58;52.20;102090.78;5050249;28;20517;-89
2022/06/13 07:44:35;;;;;;;6.80;1.95;;;;;;;19.52;52.54;102084.59;5050127;28;20033;-89
2022/06/13 07:47:02;;;;;;;9.38;2.40;;;;;;;19.36;52.63;102083.94;5050205;28;20120;-89
2022/06/13 07:49:28;;;;;;;10.00;2.03;;;;;;;19.06;52.45;102082.31;5050252;28;20103;-88
2022/06/13 07:51:54;;;;;;;10.52;2.25;;;;;;;18.80;53.63;102085.22;5051248;28;20397;-87
2022/06/13 07:54:19;;;;;;;9.37;2.30;;;;;;;18.67;53.50;102091.25;5052573;28;20029;-89
2022/06/13 07:56:45;;;;;;;8.77;2.10;;;;;;;18.67;53.71;102091.25;5054317;28;20112;-88
2022/06/13 07:59:26;;;;;;;8.83;2.10;;;;;;;18.59;55.10;102101.63;5055418;28;20329;-89
2022/06/13 08:01:51;;;;;;;11.50;2.30;;;;;;;18.61;55.87;102099.47;5049919;28;20032;-87
2022/06/13 08:04:19;;;;;;;14.97;2.30;;;;;;;18.60;55.34;102100.56;5052482;28;20029;-88
2022/06/13 08:06:44;;;;;;;9.40;1.90;;;;;;;18.90;55.07;102101.41;5051125;28;20029;-89
2022/06/13 08:09:11;;;;;;;11.60;2.20;;;;;;;18.86;53.91;102103.06;5053386;28;20373;-88
2022/06/13 08:11:57;;;;;;;9.77;2.08;;;;;;;18.86;54.07;102108.50;5053828;28;20025;-88
2022/06/13 08:14:22;;;;;;;12.90;2.90;;;;;;;19.12;54.72;102115.66;5053428;28;20017;-88
2022/06/13 08:16:47;;;;;;;8.57;2.20;;;;;;;19.64;53.00;102118.72;5053837;28;20079;-88
2022/06/13 08:19:13;;;;;;;9.17;1.80;;;;;;;20.08;51.62;102128.59;5054099;28;20035;-88
2022/06/13 08:21:38;;;;;;;9.65;1.90;;;;;;;20.49;49.43;102126.41;5053052;28;20029;-88
2022/06/13 08:24:10;;;;;;;7.63;2.10;;;;;;;20.71;50.38;102123.91;5053653;28;20013;-88
2022/06/13 08:26:36;;;;;;;7.72;1.65;;;;;;;21.20;48.18;102117.44;5060697;22;20044;-88
2022/06/13 08:29:03;;;;;;;8.30;2.10;;;;;;;21.62;47.24;102124.63;5052932;28;20021;-88
2022/06/13 08:31:29;;;;;;;8.52;1.85;;;;;;;21.94;46.24;102122.88;5053007;28;20033;-89
2022/06/13 08:33:55;;;;;;;9.25;2.00;;;;;;;22.07;44.93;102125.94;5053667;28;20021;-88
2022/06/13 08:36:21;;;;;;;7.17;2.13;;;;;;;22.12;43.94;102131.25;5053581;28;20041;-87
2022/06/13 08:38:49;;;;;;;6.20;2.00;;;;;;;21.92;45.59;102138.75;5053256;28;20059;-87
2022/06/13 08:41:32;;;;;;;6.78;1.75;;;;;;;21.23;46.23;102144.91;5053356;28;20083;-88
2022/06/13 08:44:06;;;;;;;7.13;1.85;;;;;;;20.32;46.40;102137.81;5053428;28;20380;-88
2022/06/13 08:46:55;;;;;;;5.67;1.93;;;;;;;19.91;48.36;102145.38;5053589;28;20033;-88
2022/06/13 08:49:35;;;;;;;9.30;1.77;;;;;;;19.46;49.26;102150.97;5053273;28;20283;-88
2022/06/13 08:52:06;;;;;;;8.43;1.73;;;;;;;19.44;50.72;102145.00;5034953;28;20051;-89
2022/06/13 08:54:34;;;;;;;11.52;1.83;;;;;;;19.60;50.10;102151.13;5052967;28;20056;-88
2022/06/13 08:57:04;;;;;;;9.52;1.83;;;;;;;19.81;49.61;102148.19;5053096;28;20025;-89
2022/06/13 09:06:58;;;;;;;3.85;1.40;;;;;;;21.54;46.58;102149.00;5053108;28;20099;-89
2022/06/13 09:09:30;;;;;;;8.23;1.77;;;;;;;21.66;46.65;102146.63;5023594;28;20045;-89
2022/06/13 09:12:20;;;;;;;6.53;1.65;;;;;;;21.90;45.53;102156.56;5052061;28;20052;-89
2022/06/13 09:20:49;;;;;;;5.55;1.80;;;;;;;21.21;46.21;102168.91;5050095;28;20095;-89
2022/06/13 09:23:31;;;;;;;4.32;1.45;;;;;;;20.94;45.84;102170.44;5034591;28;20025;-88
2022/06/13 09:26:16;;;;;;;6.43;1.52;;;;;;;20.54;46.99;102173.41;5052582;28;20060;-89
2022/06/13 09:29:04;;;;;;;5.82;1.50;;;;;;;20.10;47.98;102178.06;5052367;28;20100;-89
2022/06/13 09:31:46;;;;;;;10.32;1.38;;;;;;;20.23;49.14;102181.19;5052173;28;20025;-89
2022/06/13 09:34:37;;;;;;;7.68;1.70;;;;;;;20.52;48.28;102161.22;5052429;28;20029;-88
2022/06/13 09:37:16;;;;;;;7.03;1.52;;;;;;;20.98;47.72;102174.22;5052366;28;20476;-89
2022/06/13 09:39:42;;;;;;;8.75;1.30;;;;;;;21.47;47.95;102165.78;5052055;28;20392;-88
2022/06/13 09:42:29;;;;;;;4.37;1.33;;;;;;;21.99;46.69;102178.47;5051607;28;20021;-89
2022/06/13 09:45:25;;;;;;;4.28;1.10;;;;;;;22.13;44.10;102190.19;5052488;28;20025;-89
2022/06/13 09:48:02;;;;;;;3.53;1.40;;;;;;;22.22;43.75;102191.13;5051984;28;20068;-89
2022/06/13 09:54:03;;;;;;;6.32;1.50;;;;;;;22.07;43.36;102205.88;5041286;28;20037;-89
2022/06/13 09:56:51;;;;;;;7.90;1.40;;;;;;;21.37;44.76;102193.19;5051914;28;20076;-89
2022/06/13 09:59:37;;;;;;;4.65;1.45;;;;;;;21.02;46.17;102191.56;5033906;28;20072;-89
2022/06/13 10:02:21;;;;;;;4.95;1.48;;;;;;;21.42;46.76;102196.66;5051644;28;20154;-90
2022/06/13 10:05:04;;;;;;;3.97;1.40;;;;;;;22.19;44.21;102190.91;5051900;28;20116;-90
2022/06/13 10:08:02;;;;;;;6.93;1.40;;;;;;;22.81;41.52;102192.34;5052861;28;20036;-89
2022/06/13 10:10:56;;;;;;;8.00;1.40;;;;;;;23.25;41.79;102195.44;5051229;28;20302;-89
2022/06/13 10:13:36;;;;;;;6.20;1.10;;;;;;;23.06;41.69;102207.31;5033400;28;20522;-90
2022/06/13 10:16:15;;;;;;;6.50;1.30;;;;;;;22.54;41.04;102203.03;5051552;28;20070;-89
2022/06/13 10:19:08;;;;;;;6.72;1.63;;;;;;;22.19;40.89;102202.63;5033585;28;20420;-89
2022/06/13 10:21:41;;;;;;;3.20;1.20;;;;;;;21.62;42.12;102200.97;5050978;28;20048;-89
2022/06/13 10:24:39;;;;;;;4.43;1.17;;;;;;;21.91;43.51;102197.16;5051859;28;20534;-89
2022/06/13 10:27:48;;;;;;;4.22;1.17;;;;;;;22.09;42.56;102208.31;5052919;28;20036;-90
2022/06/13 10:30:39;;;;;;;5.68;1.33;;;;;;;22.69;43.12;102212.00;5024663;28;20036;-89
2022/06/13 10:33:13;;;;;;;3.85;1.58;;;;;;;22.56;40.15;102210.91;5013496;28;20037;-90
2022/06/13 10:35:53;;;;;;;5.00;1.27;;;;;;;22.22;42.14;102212.97;5052797;28;20472;-90
2022/06/13 10:38:29;;;;;;;4.57;1.60;;;;;;;21.78;41.68;102200.69;5050931;28;20279;-88
2022/06/13 10:40:55;;;;;;;5.57;1.50;;;;;;;21.28;42.62;102210.25;5051496;28;20025;-87
2022/06/13 10:43:20;;;;;;;5.07;1.42;;;;;;;20.54;42.30;102211.53;5051733;28;20082;-88
2022/06/13 10:45:46;;;;;;;4.27;1.30;;;;;;;20.01;45.00;102214.34;5051699;28;20033;-88
2022/06/13 10:48:31;;;;;;;3.08;0.98;;;;;;;19.74;46.53;102221.91;5049715;28;20033;-89
2022/06/13 10:50:59;;;;;;;4.68;1.10;;;;;;;19.80;47.57;102215.34;5050361;28;20031;-88
2022/06/13 10:53:33;;;;;;;4.43;1.10;;;;;;;20.32;48.05;102220.25;5051643;28;20033;-89
2022/06/13 10:56:02;;;;;;;5.53;1.20;;;;;;;20.78;46.49;102209.91;5051456;28;20350;-89
2022/06/13 10:58:38;;;;;;;5.47;1.50;;;;;;;21.18;45.79;102205.75;5050809;28;20056;-89
2022/06/13 11:01:13;;;;;;;4.38;1.50;;;;;;;21.75;43.90;102214.94;5050295;28;20021;-89
2022/06/13 11:04:01;;;;;;;5.53;1.50;;;;;;;22.31;42.87;102195.84;5050791;28;20040;-88
2022/06/13 11:06:39;;;;;;;4.60;1.35;;;;;;;22.51;41.33;102211.84;5032744;28;20025;-90
2022/06/13 11:09:32;;;;;;;4.60;1.15;;;;;;;22.40;41.04;102215.88;5050348;28;20017;-90
2022/06/13 11:12:02;;;;;;;3.00;1.15;;;;;;;21.70;42.96;102218.56;5050253;28;20384;-88
2022/06/13 11:14:37;;;;;;;3.72;1.40;;;;;;;21.11;41.95;102202.59;5050612;28;20031;-88
2022/06/13 11:22:40;;;;;;;2.67;1.10;;;;;;;20.61;42.29;102222.09;5050800;28;20307;-89
2022/06/13 11:25:20;;;;;;;4.13;1.15;;;;;;;20.83;42.17;102209.81;5050543;28;20029;-89
2022/06/13 11:28:00;;;;;;;5.40;1.17;;;;;;;21.38;42.75;102211.16;5050105;28;20025;-89
2022/06/13 11:30:25;;;;;;;4.10;1.30;;;;;;;21.90;40.72;102206.47;5050429;28;20059;-90
2022/06/13 11:33:24;;;;;;;2.83;1.30;;;;;;;22.46;40.43;102211.13;5051248;28;20056;-89
2022/06/13 11:36:06;;;;;;;3.58;1.17;;;;;;;23.05;39.34;102213.13;5050250;28;20055;-88
2022/06/13 11:38:35;;;;;;;2.85;1.10;;;;;;;23.01;36.77;102214.84;5049936;28;20076;-89
2022/06/13 11:41:03;;;;;;;4.40;1.27;;;;;;;23.24;38.11;102212.94;5050423;28;20103;-88
2022/06/13 11:43:48;;;;;;;5.82;1.30;;;;;;;23.60;38.70;102203.84;5052989;28;20532;-88
2022/06/13 11:46:37;;;;;;;3.72;1.20;;;;;;;23.73;37.84;102204.88;5054205;28;20480;-88
2022/06/13 11:49:14;;;;;;;6.32;1.50;;;;;;;23.50;37.81;102204.91;5054324;28;20108;-87
2022/06/13 11:51:51;;;;;;;4.47;1.67;;;;;;;23.03;38.68;102210.69;5055211;28;20029;-88
2022/06/13 11:54:35;;;;;;;5.37;1.30;;;;;;;22.44;39.60;102214.19;5055175;28;20359;-88
2022/06/13 11:59:49;;;;;;;5.68;1.38;;;;;;;22.08;41.71;102210.22;5302407;22;20053;-88
2022/06/13 12:02:24;;;;;;;4.22;1.10;;;;;;;22.59;41.80;102214.97;5054433;28;20365;-88
2022/06/13 12:07:28;;;;;;;4.88;1.55;;;;;;;22.38;41.32;102207.97;5023189;28;20057;-89
2022/06/13 12:09:57;;;;;;;5.47;1.10;;;;;;;22.32;41.68;102216.56;5048807;28;20032;-88
2022/06/13 12:12:25;;;;;;;5.90;1.40;;;;;;;22.08;40.77;102210.22;5047831;28;20018;-88
2022/06/13 12:14:58;;;;;;;4.28;1.70;;;;;;;22.22;39.62;102218.41;5047851;28;20041;-87
2022/06/13 12:17:34;;;;;;;8.57;1.47;;;;;;;21.76;41.67;102228.28;5034788;28;20075;-88
2022/06/13 12:20:14;;;;;;;4.17;1.40;;;;;;;21.53;42.39;102223.75;5034682;28;20276;-88
2022/06/13 12:22:51;;;;;;;5.68;1.40;;;;;;;21.44;42.58;102234.53;5034163;28;20029;-88
2022/06/13 12:25:34;;;;;;;4.13;1.30;;;;;;;20.84;42.03;102230.50;5034297;28;20591;-88
2022/06/13 12:28:25;;;;;;;7.28;1.65;;;;;;;20.37;42.94;102227.53;5034148;28;20025;-88
2022/06/13 12:31:13;;;;;;;4.25;1.45;;;;;;;20.26;43.62;102221.44;5029651;28;20144;-88